createdAt,value
2018-02-22T00:00:14.916Z,86.80
2018-02-22T00:01:14.805Z,87.18
2018-02-22T00:02:14.734Z,86.90
2018-02-22T00:03:14.637Z,87.18
2018-02-22T00:04:14.564Z,86.99
2018-02-22T00:05:14.513Z,87.18
2018-02-22T00:06:14.382Z,87.55
2018-02-22T00:07:14.305Z,87.74
2018-02-22T00:08:14.222Z,87.74
2018-02-22T00:10:56.509Z,87.18
2018-02-22T00:11:56.524Z,87.08
2018-02-22T00:12:56.322Z,87.08
2018-02-22T00:13:56.248Z,87.18
2018-02-22T00:14:56.160Z,86.90
2018-02-22T00:15:56.097Z,87.27
2018-02-22T00:16:55.995Z,87.65
2018-02-22T00:17:55.935Z,87.65
2018-02-22T00:18:55.824Z,87.37
2018-02-22T00:19:55.733Z,87.74
2018-02-22T00:20:55.672Z,87.65
2018-02-22T00:21:55.586Z,87.65
2018-02-22T00:22:55.487Z,87.65
2018-02-22T00:23:55.416Z,86.90
2018-02-22T00:24:55.325Z,87.65
2018-02-22T00:25:55.260Z,87.84
2018-02-22T00:26:55.174Z,87.84
2018-02-22T00:27:55.084Z,87.84
2018-02-22T00:28:55.008Z,87.84
2018-02-22T00:29:54.909Z,87.55
2018-02-22T00:30:54.823Z,88.12
2018-02-22T00:31:54.873Z,87.84
2018-02-22T00:32:54.647Z,87.46
2018-02-22T00:33:54.573Z,87.55
2018-02-22T00:34:54.481Z,87.55
2018-02-22T00:35:54.414Z,87.37
2018-02-22T00:36:54.326Z,88.12
2018-02-22T00:37:54.235Z,87.74
2018-02-22T00:38:54.148Z,87.84
2018-02-22T00:39:54.095Z,88.03
2018-02-22T00:40:54.028Z,87.93
2018-02-22T00:41:53.919Z,88.22
2018-02-22T00:42:53.826Z,88.69
2018-02-22T00:43:53.726Z,87.84
2018-02-22T00:44:53.637Z,88.22
2018-02-22T00:45:53.568Z,87.46
2018-02-22T00:46:53.504Z,87.93
2018-02-22T00:47:53.402Z,88.03
2018-02-22T00:48:53.310Z,87.74
2018-02-22T00:49:53.216Z,87.55
2018-02-22T00:50:53.138Z,87.65
2018-02-22T00:51:53.091Z,87.55
2018-02-22T00:52:52.965Z,87.55
2018-02-22T00:53:52.892Z,87.74
2018-02-22T00:54:52.802Z,87.65
2018-02-22T00:55:52.731Z,87.37
2018-02-22T00:56:52.649Z,88.03
2018-02-22T00:57:52.556Z,88.03
2018-02-22T00:58:52.476Z,88.60
2018-02-22T00:59:52.389Z,88.60
2018-02-22T01:00:52.294Z,88.31
2018-02-22T01:01:52.349Z,88.41
2018-02-22T01:02:52.136Z,88.22
2018-02-22T01:03:52.066Z,88.41
2018-02-22T01:04:51.955Z,88.79
2018-02-22T01:05:51.884Z,88.03
2018-02-22T01:06:51.786Z,87.93
2018-02-22T01:07:51.741Z,88.79
2018-02-22T01:08:51.623Z,88.50
2018-02-22T01:09:51.551Z,88.41
2018-02-22T01:10:51.451Z,88.60
2018-02-22T01:11:51.380Z,88.60
2018-02-22T01:12:51.284Z,88.60
2018-02-22T01:13:51.243Z,88.50
2018-02-22T01:14:51.116Z,88.12
2018-02-22T01:15:51.047Z,88.03
2018-02-22T01:16:50.948Z,88.41
2018-02-22T01:17:50.886Z,88.60
2018-02-22T01:18:50.834Z,88.79
2018-02-22T01:19:50.729Z,87.93
2018-02-22T01:20:50.608Z,88.50
2018-02-22T01:21:50.669Z,88.60
2018-02-22T01:22:50.443Z,88.31
2018-02-22T01:23:50.392Z,88.41
2018-02-22T01:24:50.271Z,88.50
2018-02-22T01:25:50.196Z,88.79
2018-02-22T01:26:50.102Z,88.69
2018-02-22T01:27:50.032Z,88.79
2018-02-22T01:28:49.972Z,88.88
2018-02-22T01:29:49.879Z,88.60
2018-02-22T01:30:49.766Z,88.60
2018-02-22T01:31:49.693Z,87.93
2018-02-22T01:32:49.598Z,88.79
2018-02-22T01:33:49.541Z,88.12
2018-02-22T01:34:49.450Z,88.98
2018-02-22T01:35:49.361Z,88.31
2018-02-22T01:36:49.265Z,88.69
2018-02-22T01:37:49.203Z,89.36
2018-02-22T01:38:49.093Z,88.79
2018-02-22T01:39:49.047Z,88.79
2018-02-22T01:40:48.924Z,89.17
2018-02-22T01:41:48.849Z,89.36
2018-02-22T01:42:48.755Z,89.54
2018-02-22T01:43:48.691Z,89.07
2018-02-22T01:44:48.615Z,89.17
2018-02-22T01:45:48.519Z,88.98
2018-02-22T01:46:48.426Z,89.17
2018-02-22T01:47:48.355Z,89.17
2018-02-22T01:48:48.257Z,90.11
2018-02-22T01:49:48.197Z,89.54
2018-02-22T01:50:48.131Z,90.11
2018-02-22T01:51:48.143Z,89.54
2018-02-22T01:52:47.922Z,89.83
2018-02-22T01:53:47.835Z,89.26
2018-02-22T01:54:47.754Z,89.17
2018-02-22T01:55:47.665Z,89.54
2018-02-22T01:56:47.596Z,89.54
2018-02-22T01:57:47.505Z,89.36
2018-02-22T01:58:47.410Z,89.36
2018-02-22T01:59:47.330Z,89.17
2018-02-22T02:00:47.310Z,89.54
2018-02-22T02:01:47.160Z,89.45
2018-02-22T02:02:47.080Z,89.83
2018-02-22T02:03:46.999Z,89.36
2018-02-22T02:04:46.909Z,89.26
2018-02-22T02:05:46.819Z,88.88
2018-02-22T02:06:46.763Z,88.88
2018-02-22T02:07:46.651Z,89.17
2018-02-22T02:08:46.603Z,89.07
2018-02-22T02:09:46.494Z,88.88
2018-02-22T02:10:46.411Z,89.64
2018-02-22T02:11:46.345Z,89.64
2018-02-22T02:12:46.257Z,89.54
2018-02-22T02:13:46.142Z,90.30
2018-02-22T02:14:46.062Z,89.64
2018-02-22T02:15:45.989Z,89.36
2018-02-22T02:16:45.928Z,89.64
2018-02-22T02:17:45.808Z,89.64
2018-02-22T02:18:45.731Z,89.54
2018-02-22T02:19:45.652Z,89.54
2018-02-22T02:20:45.586Z,89.17
2018-02-22T02:21:45.613Z,89.36
2018-02-22T02:22:45.391Z,90.20
2018-02-22T02:23:45.303Z,89.45
2018-02-22T02:24:45.248Z,89.73
2018-02-22T02:25:45.143Z,89.54
2018-02-22T02:26:45.065Z,90.20
2018-02-22T02:27:44.999Z,90.39
2018-02-22T02:28:44.881Z,90.20
2018-02-22T02:29:44.794Z,90.11
2018-02-22T02:30:44.728Z,90.06
2018-02-22T02:31:44.655Z,90.11
2018-02-22T02:32:44.569Z,90.20
2018-02-22T02:33:44.473Z,89.87
2018-02-22T02:34:44.375Z,90.06
2018-02-22T02:35:44.293Z,90.11
2018-02-22T02:36:44.224Z,90.11
2018-02-22T02:37:44.144Z,90.06
2018-02-22T02:38:44.045Z,90.20
2018-02-22T02:39:43.974Z,90.06
2018-02-22T02:40:43.925Z,89.87
2018-02-22T02:41:43.810Z,89.97
2018-02-22T02:42:43.744Z,90.25
2018-02-22T02:43:43.626Z,90.44
2018-02-22T02:44:43.533Z,90.06
2018-02-22T02:45:43.456Z,90.44
2018-02-22T02:46:43.366Z,90.16
2018-02-22T02:47:43.324Z,90.35
2018-02-22T02:48:43.200Z,90.63
2018-02-22T02:49:43.136Z,90.44
2018-02-22T02:50:43.027Z,90.16
2018-02-22T02:51:42.960Z,90.44
2018-02-22T02:52:42.885Z,90.63
2018-02-22T02:53:42.798Z,90.82
2018-02-22T02:54:43.720Z,90.44
2018-02-22T02:55:42.605Z,89.97
2018-02-22T02:56:42.523Z,90.06
2018-02-22T02:57:42.451Z,90.63
2018-02-22T02:58:42.477Z,90.82
2018-02-22T02:59:42.270Z,90.44
2018-02-22T03:00:42.213Z,90.44
2018-02-22T03:01:42.112Z,90.73
2018-02-22T03:02:42.013Z,90.73
2018-02-22T03:03:41.958Z,91.01
2018-02-22T03:04:41.855Z,91.01
2018-02-22T03:05:41.762Z,91.20
2018-02-22T03:06:41.702Z,91.29
2018-02-22T03:07:41.590Z,90.25
2018-02-22T03:08:41.603Z,91.29
2018-02-22T03:09:41.425Z,91.20
2018-02-22T03:10:41.334Z,91.29
2018-02-22T03:11:41.367Z,91.29
2018-02-22T03:12:41.180Z,91.01
2018-02-22T03:13:41.097Z,91.10
2018-02-22T03:14:40.995Z,91.48
2018-02-22T03:15:40.943Z,91.10
2018-02-22T03:16:40.831Z,91.01
2018-02-22T03:17:40.747Z,91.01
2018-02-22T03:18:40.699Z,91.10
2018-02-22T03:19:40.580Z,91.29
2018-02-22T03:20:40.498Z,91.29
2018-02-22T03:21:40.413Z,91.10
2018-02-22T03:22:40.328Z,91.01
2018-02-22T03:23:40.264Z,91.20
2018-02-22T03:24:40.164Z,91.20
2018-02-22T03:25:40.066Z,91.48
2018-02-22T03:26:39.983Z,91.39
2018-02-22T03:27:39.912Z,91.29
2018-02-22T03:28:40.581Z,91.48
2018-02-22T03:29:39.753Z,91.10
2018-02-22T03:30:39.660Z,91.29
2018-02-22T03:31:39.612Z,90.82
2018-02-22T03:32:39.483Z,91.39
2018-02-22T03:33:39.409Z,91.10
2018-02-22T03:34:39.327Z,91.39
2018-02-22T03:35:39.225Z,91.10
2018-02-22T03:36:39.155Z,91.20
2018-02-22T03:37:39.051Z,91.48
2018-02-22T03:38:38.972Z,91.29
2018-02-22T03:39:38.911Z,91.20
2018-02-22T03:40:38.810Z,91.01
2018-02-22T03:41:38.720Z,91.86
2018-02-22T03:42:38.647Z,91.20
2018-02-22T03:43:38.564Z,91.01
2018-02-22T03:44:38.487Z,90.91
2018-02-22T03:45:38.389Z,91.29
2018-02-22T03:46:38.292Z,90.73
2018-02-22T03:47:38.222Z,90.63
2018-02-22T03:48:38.136Z,91.20
2018-02-22T03:49:38.066Z,91.20
2018-02-22T03:50:37.956Z,91.20
2018-02-22T03:51:37.891Z,90.54
2018-02-22T03:52:37.788Z,91.20
2018-02-22T03:53:37.707Z,91.29
2018-02-22T03:54:37.645Z,90.54
2018-02-22T03:55:37.544Z,90.25
2018-02-22T03:56:37.450Z,90.25
2018-02-22T03:57:37.376Z,91.20
2018-02-22T03:58:37.366Z,90.82
2018-02-22T03:59:37.201Z,91.48
2018-02-22T04:00:37.134Z,91.20
2018-02-22T04:01:37.045Z,90.44
2018-02-22T04:02:36.955Z,90.73
2018-02-22T04:03:36.868Z,90.44
2018-02-22T04:04:36.817Z,91.48
2018-02-22T04:05:36.725Z,90.91
2018-02-22T04:06:36.605Z,91.67
2018-02-22T04:07:36.535Z,91.29
2018-02-22T04:08:36.452Z,91.48
2018-02-22T04:09:36.395Z,91.10
2018-02-22T04:10:36.295Z,91.01
2018-02-22T04:11:36.196Z,91.39
2018-02-22T04:12:36.102Z,91.29
2018-02-22T04:13:36.022Z,91.10
2018-02-22T04:14:35.929Z,91.10
2018-02-22T04:15:35.888Z,91.29
2018-02-22T04:16:35.771Z,91.29
2018-02-22T04:17:35.682Z,91.10
2018-02-22T04:18:35.605Z,91.01
2018-02-22T04:19:35.534Z,91.20
2018-02-22T04:20:35.424Z,91.10
2018-02-22T04:21:35.383Z,91.86
2018-02-22T04:22:35.262Z,91.86
2018-02-22T04:23:35.171Z,91.67
2018-02-22T04:24:35.084Z,92.14
2018-02-22T04:25:35.035Z,92.61
2018-02-22T04:26:34.915Z,92.61
2018-02-22T04:27:34.857Z,92.52
2018-02-22T04:28:34.760Z,92.05
2018-02-22T04:29:34.672Z,92.05
2018-02-22T04:30:34.577Z,92.05
2018-02-22T04:31:34.530Z,92.14
2018-02-22T04:32:34.435Z,91.86
2018-02-22T04:33:34.335Z,91.86
2018-02-22T04:34:34.238Z,91.77
2018-02-22T04:35:34.172Z,91.86
2018-02-22T04:36:34.087Z,91.29
2018-02-22T04:37:34.005Z,91.01
2018-02-22T04:38:33.902Z,91.10
2018-02-22T04:39:33.832Z,90.25
2018-02-22T04:40:33.734Z,90.68
2018-02-22T04:41:33.670Z,90.16
2018-02-22T04:42:33.567Z,90.49
2018-02-22T04:43:33.494Z,90.30
2018-02-22T04:44:33.413Z,89.69
2018-02-22T04:45:33.310Z,88.98
2018-02-22T04:46:33.261Z,89.36
2018-02-22T04:47:33.146Z,89.92
2018-02-22T04:48:33.138Z,89.54
2018-02-22T04:49:33.008Z,88.98
2018-02-22T04:50:32.912Z,89.45
2018-02-22T04:51:32.937Z,89.26
2018-02-22T04:52:32.747Z,88.50
2018-02-22T04:53:32.640Z,88.50
2018-02-22T04:54:32.558Z,88.50
2018-02-22T04:55:32.568Z,88.50
2018-02-22T04:56:32.381Z,88.31
2018-02-22T04:57:32.322Z,87.84
2018-02-22T04:58:32.241Z,87.65
2018-02-22T04:59:32.151Z,87.55
2018-02-22T05:00:32.050Z,87.55
2018-02-22T05:01:31.973Z,88.03
2018-02-22T05:02:31.901Z,88.12
2018-02-22T05:03:31.818Z,88.60
2018-02-22T05:04:31.728Z,88.88
2018-02-22T05:05:31.631Z,88.41
2018-02-22T05:06:31.539Z,88.41
2018-02-22T05:07:31.465Z,88.22
2018-02-22T05:08:31.500Z,88.60
2018-02-22T05:09:31.304Z,88.60
2018-02-22T05:10:31.196Z,87.84
2018-02-22T05:11:31.117Z,88.60
2018-02-22T05:12:31.044Z,89.36
2018-02-22T05:13:30.965Z,88.50
2018-02-22T05:14:30.861Z,87.37
2018-02-22T05:15:30.780Z,87.55
2018-02-22T05:16:30.704Z,87.55
2018-02-22T05:17:30.616Z,87.65
2018-02-22T05:18:30.636Z,87.55
2018-02-22T05:19:30.452Z,87.84
2018-02-22T05:20:30.366Z,87.74
2018-02-22T05:21:30.286Z,87.55
2018-02-22T05:22:30.206Z,87.37
2018-02-22T05:23:30.120Z,87.55
2018-02-22T05:24:30.043Z,87.18
2018-02-22T05:25:29.950Z,87.27
2018-02-22T05:26:29.924Z,87.74
2018-02-22T05:27:29.770Z,87.37
2018-02-22T05:28:29.757Z,87.55
2018-02-22T05:29:29.805Z,87.74
2018-02-22T05:30:29.529Z,87.46
2018-02-22T05:31:29.490Z,88.03
2018-02-22T05:32:29.343Z,87.55
2018-02-22T05:33:29.296Z,87.18
2018-02-22T05:34:29.202Z,86.99
2018-02-22T05:35:29.237Z,87.55
2018-02-22T05:36:29.002Z,87.08
2018-02-22T05:37:28.929Z,87.18
2018-02-22T05:38:28.926Z,86.99
2018-02-22T05:39:28.773Z,86.61
2018-02-22T05:40:28.687Z,87.18
2018-02-22T05:41:28.636Z,87.08
2018-02-22T05:42:28.496Z,87.18
2018-02-22T05:43:28.444Z,86.90
2018-02-22T05:44:28.374Z,87.08
2018-02-22T05:45:28.239Z,87.55
2018-02-22T05:46:28.258Z,87.08
2018-02-22T05:47:28.080Z,87.08
2018-02-22T05:48:30.013Z,87.37
2018-02-22T05:49:27.921Z,86.99
2018-02-22T05:50:27.909Z,86.90
2018-02-22T05:51:27.744Z,87.18
2018-02-22T05:52:27.712Z,87.27
2018-02-22T05:53:27.572Z,87.27
2018-02-22T05:54:27.523Z,87.65
2018-02-22T05:55:27.436Z,87.65
2018-02-22T05:56:27.332Z,87.65
2018-02-22T05:57:27.230Z,87.46
2018-02-22T05:58:27.188Z,87.65
2018-02-22T05:59:27.056Z,87.74
2018-02-22T06:00:26.995Z,87.55
2018-02-22T06:01:26.888Z,88.03
2018-02-22T06:02:26.827Z,88.22
2018-02-22T06:03:26.731Z,88.03
2018-02-22T06:04:26.645Z,88.22
2018-02-22T06:05:26.580Z,87.84
2018-02-22T06:06:26.487Z,88.12
2018-02-22T06:07:26.387Z,87.84
2018-02-22T06:08:26.371Z,88.50
2018-02-22T06:09:26.220Z,88.50
2018-02-22T06:10:26.152Z,89.26
2018-02-22T06:11:26.039Z,89.07
2018-02-22T06:12:25.979Z,88.50
2018-02-22T06:13:25.871Z,88.50
2018-02-22T06:14:25.798Z,88.31
2018-02-22T06:15:25.734Z,88.31
2018-02-22T06:16:25.653Z,88.22
2018-02-22T06:17:25.539Z,88.17
2018-02-22T06:18:25.466Z,89.03
2018-02-22T06:19:25.364Z,89.12
2018-02-22T06:20:25.290Z,89.31
2018-02-22T06:21:25.220Z,89.83
2018-02-22T06:22:25.125Z,89.78
2018-02-22T06:23:25.029Z,89.45
2018-02-22T06:24:24.976Z,88.74
2018-02-22T06:25:24.912Z,88.93
2018-02-22T06:26:24.790Z,89.31
2018-02-22T06:27:24.692Z,89.69
2018-02-22T06:28:24.711Z,89.50
2018-02-22T06:29:24.519Z,89.69
2018-02-22T06:30:24.458Z,89.40
2018-02-22T06:31:24.366Z,88.93
2018-02-22T06:32:24.273Z,89.07
2018-02-22T06:33:24.212Z,89.03
2018-02-22T06:34:24.103Z,89.59
2018-02-22T06:35:24.021Z,89.59
2018-02-22T06:36:23.964Z,89.03
2018-02-22T06:37:23.846Z,89.12
2018-02-22T06:38:23.795Z,88.84
2018-02-22T06:39:23.679Z,89.12
2018-02-22T06:40:23.690Z,89.12
2018-02-22T06:41:23.521Z,89.31
2018-02-22T06:42:23.433Z,89.54
2018-02-22T06:43:23.349Z,89.17
2018-02-22T06:44:23.264Z,89.03
2018-02-22T06:45:23.167Z,89.31
2018-02-22T06:46:23.095Z,89.07
2018-02-22T06:47:22.993Z,89.12
2018-02-22T06:48:22.947Z,88.98
2018-02-22T06:49:22.823Z,89.03
2018-02-22T06:50:22.761Z,89.07
2018-02-22T06:51:22.671Z,89.03
2018-02-22T06:52:22.589Z,88.55
2018-02-22T06:53:22.511Z,89.12
2018-02-22T06:54:22.420Z,89.12
2018-02-22T06:55:22.344Z,89.31
2018-02-22T06:56:22.261Z,89.12
2018-02-22T06:57:22.191Z,89.22
2018-02-22T06:58:22.191Z,89.07
2018-02-22T06:59:22.000Z,88.98
2018-02-22T07:00:21.918Z,88.60
2018-02-22T07:01:21.819Z,88.50
2018-02-22T07:02:21.747Z,88.41
2018-02-22T07:03:21.660Z,87.74
2018-02-22T07:04:21.568Z,88.22
2018-02-22T07:05:21.482Z,87.93
2018-02-22T07:06:21.404Z,87.84
2018-02-22T07:07:21.311Z,88.60
2018-02-22T07:08:21.266Z,87.93
2018-02-22T07:09:21.145Z,87.74
2018-02-22T07:10:21.084Z,87.84
2018-02-22T07:11:20.977Z,87.65
2018-02-22T07:12:20.912Z,87.55
2018-02-22T07:13:20.840Z,87.65
2018-02-22T07:14:20.729Z,87.84
2018-02-22T07:15:20.687Z,87.27
2018-02-22T07:16:20.556Z,86.80
2018-02-22T07:17:20.478Z,86.80
2018-02-22T07:18:21.097Z,87.08
2018-02-22T07:19:20.284Z,86.33
2018-02-22T07:20:20.217Z,86.42
2018-02-22T07:21:20.144Z,86.33
2018-02-22T07:22:20.067Z,86.04
2018-02-22T07:23:19.949Z,85.85
2018-02-22T07:24:19.884Z,85.38
2018-02-22T07:25:19.779Z,85.38
2018-02-22T07:26:19.715Z,85.57
2018-02-22T07:27:19.628Z,85.57
2018-02-22T07:28:19.536Z,85.38
2018-02-22T07:29:19.452Z,85.19
2018-02-22T07:30:19.376Z,85.38
2018-02-22T07:31:19.313Z,85.19
2018-02-22T07:32:19.222Z,85.47
2018-02-22T07:33:19.125Z,85.47
2018-02-22T07:34:19.022Z,85.00
2018-02-22T07:35:18.941Z,85.10
2018-02-22T07:38:01.064Z,84.81
2018-02-22T07:39:00.946Z,84.81
2018-02-22T07:40:00.864Z,85.19
2018-02-22T07:41:00.776Z,84.81
2018-02-22T07:42:00.683Z,84.63
2018-02-22T07:43:00.617Z,85.10
2018-02-22T07:44:00.533Z,84.91
2018-02-22T07:45:00.463Z,84.72
2018-02-22T07:46:00.351Z,84.91
2018-02-22T07:47:00.274Z,84.81
2018-02-22T07:48:00.193Z,84.53
2018-02-22T07:49:00.134Z,85.14
2018-02-22T07:50:00.008Z,84.44
2018-02-22T07:50:59.957Z,84.29
2018-02-22T07:51:59.846Z,84.29
2018-02-22T07:52:59.803Z,84.10
2018-02-22T07:53:59.702Z,83.72
2018-02-22T07:54:59.665Z,84.01
2018-02-22T07:55:59.507Z,83.34
2018-02-22T07:56:59.434Z,83.91
2018-02-22T07:57:59.355Z,83.25
2018-02-22T07:58:59.287Z,82.78
2018-02-22T07:59:59.203Z,81.02
2018-02-22T08:00:59.090Z,78.07
2018-02-22T08:01:58.995Z,75.45
2018-02-22T08:02:58.926Z,71.60
2018-02-22T08:03:58.854Z,68.70
2018-02-22T08:04:58.762Z,67.62
2018-02-22T08:05:58.680Z,66.58
2018-02-22T08:06:58.599Z,66.17
2018-02-22T08:07:58.496Z,65.00
2018-02-22T08:08:58.441Z,64.43
2018-02-22T08:09:58.325Z,63.98
2018-02-22T08:10:58.275Z,62.94
2018-02-22T08:11:58.168Z,62.59
2018-02-22T08:12:58.092Z,60.63
2018-02-22T08:13:57.999Z,60.03
2018-02-22T08:14:57.958Z,60.00
2018-02-22T08:15:57.881Z,60.85
2018-02-22T08:16:57.773Z,61.52
2018-02-22T08:17:57.792Z,62.05
2018-02-22T08:18:57.596Z,63.01
2018-02-22T08:19:57.512Z,62.91
2018-02-22T08:20:57.445Z,62.85
2018-02-22T08:21:57.384Z,63.39
2018-02-22T08:22:57.293Z,62.91
2018-02-22T08:23:57.193Z,63.17
2018-02-22T08:24:57.141Z,63.57
2018-02-22T08:25:57.025Z,62.56
2018-02-22T08:26:56.954Z,62.88
2018-02-22T08:27:56.855Z,64.78
2018-02-22T08:28:56.799Z,64.97
2018-02-22T08:29:56.718Z,64.97
2018-02-22T08:31:56.557Z,63.45
2018-02-22T08:32:56.483Z,61.74
2018-02-22T08:33:56.375Z,59.93
2018-02-22T08:34:56.503Z,59.93
2018-02-22T08:35:56.237Z,58.63
2018-02-22T08:36:56.142Z,57.21
2018-02-22T08:37:56.058Z,56.63
2018-02-22T08:38:55.977Z,56.54
2018-02-22T08:39:55.914Z,56.42
2018-02-22T08:40:55.823Z,57.28
2018-02-22T08:41:55.724Z,57.65
2018-02-22T08:42:55.690Z,57.78
2018-02-22T08:43:55.566Z,57.84
2018-02-22T08:44:55.514Z,57.78
2018-02-22T08:45:55.412Z,57.78
2018-02-22T08:46:55.327Z,57.37
2018-02-22T08:47:55.259Z,57.56
2018-02-22T08:48:55.198Z,57.30
2018-02-22T08:49:55.085Z,56.19
2018-02-22T08:50:55.080Z,55.15
2018-02-22T08:51:54.972Z,53.94
2018-02-22T08:52:54.861Z,54.13
2018-02-22T08:53:54.768Z,53.27
2018-02-22T08:54:54.698Z,53.34
2018-02-22T08:55:54.615Z,53.27
2018-02-22T08:56:54.576Z,52.82
2018-02-22T08:57:55.142Z,51.53
2018-02-22T08:58:54.382Z,53.24
2018-02-22T08:59:54.293Z,54.10
2018-02-22T09:00:54.228Z,53.91
2018-02-22T09:01:54.145Z,53.27
2018-02-22T09:02:54.067Z,53.05
2018-02-22T09:03:53.972Z,53.81
2018-02-22T09:04:53.932Z,52.98
2018-02-22T09:05:53.844Z,52.76
2018-02-22T09:06:53.755Z,53.36
2018-02-22T09:07:53.658Z,52.41
2018-02-22T09:08:53.593Z,52.51
2018-02-22T09:09:53.501Z,52.39
2018-02-22T09:10:53.540Z,52.48
2018-02-22T09:11:53.361Z,52.80
2018-02-22T09:12:53.292Z,52.25
2018-02-22T09:13:53.281Z,50.92
2018-02-22T09:14:53.127Z,50.70
2018-02-22T09:15:53.047Z,51.34
2018-02-22T09:16:53.090Z,52.41
2018-02-22T09:17:52.865Z,51.87
2018-02-22T09:18:52.814Z,50.51
2018-02-22T09:19:52.720Z,51.08
2018-02-22T09:20:52.642Z,50.85
2018-02-22T09:21:52.587Z,49.71
2018-02-22T09:22:52.516Z,49.18
2018-02-22T09:23:52.400Z,47.78
2018-02-22T09:24:52.339Z,45.61
2018-02-22T09:25:52.256Z,44.06
2018-02-22T09:26:52.173Z,44.23
2018-02-22T09:27:52.113Z,46.63
2018-02-22T09:28:52.019Z,48.16
2018-02-22T09:29:52.620Z,48.63
2018-02-22T09:30:51.866Z,47.94
2018-02-22T09:31:51.774Z,47.54
2018-02-22T09:32:51.776Z,47.20
2018-02-22T09:34:51.546Z,48.27
2018-02-22T09:35:51.465Z,47.44
2018-02-22T09:36:51.399Z,46.87
2018-02-22T09:37:51.296Z,48.08
2018-02-22T09:38:51.253Z,47.61
2018-02-22T09:39:51.149Z,47.94
2018-02-22T09:40:51.083Z,49.79
2018-02-22T09:41:50.995Z,51.53
2018-02-22T09:42:50.926Z,51.84
2018-02-22T09:43:50.858Z,51.62
2018-02-22T09:44:50.789Z,50.89
2018-02-22T09:45:50.667Z,49.87
2018-02-22T09:46:50.656Z,48.78
2018-02-22T09:47:50.522Z,47.23
2018-02-22T09:48:50.475Z,47.58
2018-02-22T09:49:50.442Z,48.90
2018-02-22T09:50:50.299Z,49.56
2018-02-22T09:51:50.210Z,49.27
2018-02-22T09:52:50.154Z,49.56
2018-02-22T09:53:50.070Z,49.01
2018-02-22T09:54:49.980Z,48.99
2018-02-22T09:55:49.899Z,49.58
2018-02-22T09:56:49.823Z,48.92
2018-02-22T09:57:49.734Z,49.15
2018-02-22T09:58:49.689Z,51.08
2018-02-22T09:59:49.606Z,49.99
2018-02-22T10:00:49.528Z,48.02
2018-02-22T10:01:49.424Z,46.42
2018-02-22T10:02:49.360Z,46.04
2018-02-22T10:03:49.270Z,45.13
2018-02-22T10:04:49.224Z,43.29
2018-02-22T10:05:49.116Z,44.37
2018-02-22T10:06:49.046Z,45.73
2018-02-22T10:07:48.955Z,46.20
2018-02-22T10:08:48.971Z,46.73
2018-02-22T10:09:48.858Z,45.51
2018-02-22T10:10:48.757Z,47.11
2018-02-22T10:11:48.645Z,48.11
2018-02-22T10:12:48.621Z,49.91
2018-02-22T10:13:48.492Z,49.65
2018-02-22T10:14:48.445Z,48.80
2018-02-22T10:15:48.359Z,49.11
2018-02-22T10:16:48.299Z,47.13
2018-02-22T10:17:48.176Z,47.39
2018-02-22T10:18:48.112Z,47.11
2018-02-22T10:19:48.055Z,48.16
2018-02-22T10:20:47.972Z,47.30
2018-02-22T10:21:47.868Z,47.68
2018-02-22T10:22:47.896Z,47.92
2018-02-22T10:23:47.711Z,49.25
2018-02-22T10:24:47.655Z,49.18
2018-02-22T10:25:47.580Z,49.06
2018-02-22T10:26:47.497Z,50.13
2018-02-22T10:27:47.412Z,49.40
2018-02-22T10:28:47.348Z,47.87
2018-02-22T10:29:47.247Z,47.68
2018-02-22T10:30:47.192Z,47.30
2018-02-22T10:31:47.192Z,47.94
2018-02-22T10:32:47.033Z,48.51
2018-02-22T10:33:46.946Z,48.63
2018-02-22T10:34:46.867Z,47.61
2018-02-22T10:35:46.785Z,46.68
2018-02-22T10:36:46.719Z,45.92
2018-02-22T10:37:46.634Z,45.63
2018-02-22T10:38:46.545Z,45.54
2018-02-22T10:39:46.465Z,45.47
2018-02-22T10:40:46.440Z,44.96
2018-02-22T10:41:46.321Z,45.18
2018-02-22T10:42:46.262Z,44.04
2018-02-22T10:44:46.100Z,45.01
2018-02-22T10:45:46.039Z,47.16
2018-02-22T10:46:45.932Z,47.92
2018-02-22T10:47:45.875Z,49.37
2018-02-22T10:48:45.779Z,48.90
2018-02-22T10:49:45.687Z,47.97
2018-02-22T10:50:45.616Z,48.03
2018-02-22T10:51:45.545Z,48.51
2018-02-22T10:52:45.474Z,48.58
2018-02-22T10:53:45.390Z,49.18
2018-02-22T10:54:45.313Z,48.61
2018-02-22T10:55:45.228Z,48.13
2018-02-22T10:56:45.154Z,47.78
2018-02-22T10:57:45.114Z,47.30
2018-02-22T10:58:45.017Z,47.37
2018-02-22T10:59:44.925Z,47.63
2018-02-22T11:00:44.853Z,47.85
2018-02-22T11:01:44.769Z,46.83
2018-02-22T11:02:44.698Z,47.30
2018-02-22T11:03:44.627Z,47.11
2018-02-22T11:04:44.592Z,46.14
2018-02-22T11:05:44.445Z,47.56
2018-02-22T11:06:44.383Z,47.58
2018-02-22T11:07:44.310Z,46.63
2018-02-22T11:08:44.259Z,46.54
2018-02-22T11:09:44.162Z,47.02
2018-02-22T11:10:44.071Z,46.44
2018-02-22T11:11:43.983Z,46.54
2018-02-22T11:12:43.913Z,45.80
2018-02-22T11:13:43.847Z,44.80
2018-02-22T11:14:43.785Z,43.58
2018-02-22T11:15:43.672Z,43.32
2018-02-22T11:16:43.597Z,44.27
2018-02-22T11:17:43.525Z,45.23
2018-02-22T11:18:43.450Z,44.75
2018-02-22T11:19:43.397Z,45.30
2018-02-22T11:20:43.296Z,47.20
2018-02-22T11:21:43.218Z,47.20
2018-02-22T11:22:43.160Z,47.52
2018-02-22T11:23:43.046Z,45.84
2018-02-22T11:24:42.994Z,45.29
2018-02-22T11:25:42.916Z,44.06
2018-02-22T11:26:42.832Z,45.18
2018-02-22T11:27:42.744Z,44.99
2018-02-22T11:28:42.679Z,45.42
2018-02-22T11:29:42.598Z,46.56
2018-02-22T11:30:42.667Z,46.94
2018-02-22T11:31:42.424Z,47.30
2018-02-22T11:32:42.365Z,47.87
2018-02-22T11:33:42.273Z,47.92
2018-02-22T11:34:42.209Z,47.44
2018-02-22T11:35:42.130Z,46.04
2018-02-22T11:36:42.059Z,46.09
2018-02-22T11:37:41.965Z,45.68
2018-02-22T11:38:41.897Z,47.28
2018-02-22T11:39:41.846Z,47.78
2018-02-22T11:40:41.770Z,48.13
2018-02-22T11:41:41.654Z,48.87
2018-02-22T11:42:41.597Z,50.08
2018-02-22T11:43:41.527Z,50.77
2018-02-22T11:44:41.441Z,49.20
2018-02-22T11:45:41.365Z,48.96
2018-02-22T11:46:41.292Z,49.27
2018-02-22T11:47:41.191Z,48.63
2018-02-22T11:48:41.134Z,47.32
2018-02-22T11:49:41.046Z,46.09
2018-02-22T11:50:40.990Z,45.51
2018-02-22T11:51:40.894Z,46.88
2018-02-22T11:52:40.811Z,49.06
2018-02-22T11:53:40.728Z,48.71
2018-02-22T11:54:40.656Z,48.06
2018-02-22T11:55:40.582Z,47.30
2018-02-22T11:56:40.502Z,46.61
2018-02-22T11:57:40.423Z,47.30
2018-02-22T11:58:40.346Z,47.30
2018-02-22T11:59:40.252Z,47.30
2018-02-22T12:00:40.214Z,46.92
2018-02-22T12:01:40.146Z,48.35
2018-02-22T12:02:40.035Z,47.39
2018-02-22T12:03:39.992Z,46.84
2018-02-22T12:04:39.880Z,46.25
2018-02-22T12:05:39.802Z,45.80
2018-02-22T12:06:39.808Z,46.28
2018-02-22T12:07:39.632Z,45.51
2018-02-22T12:08:39.569Z,45.42
2018-02-22T12:09:39.478Z,46.28
2018-02-22T12:10:39.412Z,45.40
2018-02-22T12:11:39.345Z,45.97
2018-02-22T12:12:39.255Z,45.75
2018-02-22T12:13:39.159Z,47.09
2018-02-22T12:14:39.117Z,47.28
2018-02-22T12:15:39.019Z,46.88
2018-02-22T12:16:39.019Z,47.47
2018-02-22T12:17:38.858Z,46.80
2018-02-22T12:18:38.789Z,46.92
2018-02-22T12:19:38.724Z,46.63
2018-02-22T12:20:38.639Z,45.97
2018-02-22T12:21:38.562Z,46.14
2018-02-22T12:22:38.517Z,46.59
2018-02-22T12:23:38.393Z,47.37
2018-02-22T12:24:38.330Z,47.37
2018-02-22T12:25:38.237Z,47.56
2018-02-22T12:26:38.199Z,47.11
2018-02-22T12:27:38.084Z,47.11
2018-02-22T12:28:38.027Z,46.15
2018-02-22T12:29:37.921Z,46.89
2018-02-22T12:30:37.874Z,47.94
2018-02-22T12:31:37.763Z,48.85
2018-02-22T12:32:37.734Z,49.41
2018-02-22T12:33:37.629Z,50.81
2018-02-22T12:34:37.551Z,52.02
2018-02-22T12:35:37.452Z,53.73
2018-02-22T12:36:37.384Z,54.21
2018-02-22T12:37:37.300Z,54.68
2018-02-22T12:38:37.245Z,54.68
2018-02-22T12:39:37.163Z,54.68
2018-02-22T12:40:37.083Z,54.87
2018-02-22T12:41:36.984Z,55.35
2018-02-22T12:42:37.014Z,55.73
2018-02-22T12:43:36.842Z,55.44
2018-02-22T12:44:36.757Z,55.06
2018-02-22T12:45:36.655Z,55.63
2018-02-22T12:46:36.594Z,55.60
2018-02-22T12:47:36.505Z,56.01
2018-02-22T12:48:36.446Z,55.41
2018-02-22T12:49:36.347Z,55.51
2018-02-22T12:50:36.265Z,55.54
2018-02-22T12:51:36.172Z,55.54
2018-02-22T12:52:36.101Z,55.44
2018-02-22T12:53:36.041Z,55.63
2018-02-22T12:54:35.939Z,55.35
2018-02-22T12:55:35.851Z,55.44
2018-02-22T12:56:35.792Z,55.60
2018-02-22T12:57:35.692Z,55.70